createdAt,value
2022-11-20T00:01:32.689Z,100725.06
2022-11-20T00:04:00.854Z,100733.78
2022-11-20T00:06:29.230Z,100719.97
2022-11-20T00:09:01.427Z,100719.16
2022-11-20T00:11:30.866Z,100713.41
2022-11-20T00:14:01.104Z,100722.78
2022-11-20T00:16:31.411Z,100724.59
2022-11-20T00:18:58.309Z,100702.22
2022-11-20T00:21:28.386Z,100718.31
2022-11-20T00:23:57.191Z,100718.31
2022-11-20T00:26:26.321Z,100724.41
2022-11-20T00:28:57.542Z,100721.41
2022-11-20T00:31:25.439Z,100716.31
2022-11-20T00:33:53.032Z,100717.13
2022-11-20T00:36:23.937Z,100714.94
2022-11-20T00:38:56.363Z,100719.41
2022-11-20T00:41:25.303Z,100723.69
2022-11-20T00:43:57.086Z,100717.84
2022-11-20T00:46:27.953Z,100728.78
2022-11-20T00:48:55.500Z,100723.31
2022-11-20T00:51:25.172Z,100727.59
2022-11-20T00:53:52.900Z,100726.59
2022-11-20T00:56:20.707Z,100728.06
2022-11-20T00:58:49.517Z,100725.94
2022-11-20T01:01:25.404Z,100714.75
2022-11-20T01:03:56.006Z,100720.03
2022-11-20T01:06:31.032Z,100722.88
2022-11-20T01:09:01.691Z,100723.69
2022-11-20T01:11:32.855Z,100720.41
2022-11-20T01:14:02.866Z,100723.22
2022-11-20T01:16:37.188Z,100720.22
2022-11-20T01:19:07.440Z,100717.22
2022-11-20T01:21:39.146Z,100713.94
2022-11-20T01:24:08.995Z,100711.22
2022-11-20T01:26:39.062Z,100709.84
2022-11-20T01:29:08.381Z,100715.75
2022-11-20T01:31:38.051Z,100712.69
2022-11-20T01:34:10.319Z,100708.41
2022-11-20T01:36:38.939Z,100700.28
2022-11-20T01:39:16.302Z,100704.13
2022-11-20T01:42:08.427Z,100707.59
2022-11-20T01:44:59.555Z,100713.88
2022-11-20T01:47:39.996Z,100706.94
2022-11-20T01:50:25.947Z,100708.59
2022-11-20T01:53:14.767Z,100718.78
2022-11-20T01:55:55.452Z,100705.38
2022-11-20T01:58:29.497Z,100707.22
2022-11-20T02:00:57.164Z,100695.13
2022-11-20T02:03:25.071Z,100698.22
2022-11-20T02:06:18.901Z,100708.22
2022-11-20T02:08:45.834Z,100707.75
2022-11-20T02:11:13.737Z,100710.41
2022-11-20T02:13:44.168Z,100697.22
2022-11-20T02:16:38.939Z,100668.84
2022-11-20T02:19:22.638Z,100680.75
2022-11-20T02:22:17.407Z,100693.50
2022-11-20T02:24:46.166Z,100684.94
2022-11-20T02:27:16.154Z,100694.66
2022-11-20T02:29:51.291Z,100693.31
2022-11-20T02:32:23.811Z,100692.47
2022-11-20T02:34:50.907Z,100685.38
2022-11-20T02:37:19.005Z,100699.59
2022-11-20T02:39:49.050Z,100688.03
2022-11-20T02:42:16.221Z,100686.19
2022-11-20T02:44:43.735Z,100687.22
2022-11-20T02:47:10.742Z,100683.75
2022-11-20T02:49:37.838Z,100683.38
2022-11-20T02:52:05.197Z,100681.75
2022-11-20T02:54:32.101Z,100682.38
2022-11-20T02:56:59.170Z,100683.19
2022-11-20T02:59:26.941Z,100673.63
2022-11-20T03:01:53.807Z,100683.81
2022-11-20T03:04:20.890Z,100675.28
2022-11-20T03:06:48.265Z,100677.28
2022-11-20T03:09:15.130Z,100671.19
2022-11-20T03:11:42.033Z,100674.47
2022-11-20T03:14:09.009Z,100676.28
2022-11-20T03:16:36.272Z,100668.34
2022-11-20T03:19:03.231Z,100666.72
2022-11-20T03:21:30.790Z,100672.00
2022-11-20T03:23:57.686Z,100672.63
2022-11-20T03:26:28.249Z,100659.81
2022-11-20T03:28:59.264Z,100669.56
2022-11-20T03:31:36.108Z,100651.81
2022-11-20T03:34:04.615Z,100654.00
2022-11-20T03:36:32.078Z,100654.38
2022-11-20T03:38:59.817Z,100655.84
2022-11-20T03:41:30.062Z,100654.81
2022-11-20T03:44:04.495Z,100659.09
2022-11-20T03:46:32.002Z,100662.56
2022-11-20T03:48:58.990Z,100658.91
2022-11-20T03:51:29.382Z,100651.00
2022-11-20T03:54:00.267Z,100649.72
2022-11-20T03:56:33.997Z,100651.38
2022-11-20T03:59:01.522Z,100654.63
2022-11-20T04:01:35.752Z,100659.91
2022-11-20T04:04:03.828Z,100649.56
2022-11-20T04:06:36.144Z,100655.66
2022-11-20T04:09:04.058Z,100651.63
2022-11-20T04:11:34.102Z,100647.91
2022-11-20T04:14:07.579Z,100649.72
2022-11-20T04:16:37.008Z,100654.00
2022-11-20T04:19:09.630Z,100653.00
2022-11-20T04:21:36.578Z,100653.63
2022-11-20T04:24:03.658Z,100660.56
2022-11-20T04:26:31.935Z,100661.75
2022-11-20T04:28:59.773Z,100649.38
2022-11-20T04:31:31.190Z,100669.84
2022-11-20T04:34:03.959Z,100660.28
2022-11-20T04:36:32.486Z,100656.19
2022-11-20T04:39:06.630Z,100653.75
2022-11-20T04:41:36.988Z,100658.22
2022-11-20T04:44:06.799Z,100651.09
2022-11-20T04:46:37.583Z,100641.75
2022-11-20T04:49:05.431Z,100636.00
2022-11-20T04:51:33.386Z,100639.66
2022-11-20T04:54:00.834Z,100634.75
2022-11-20T04:56:27.693Z,100637.75
2022-11-20T04:58:54.663Z,100635.94
2022-11-20T05:01:24.916Z,100637.38
2022-11-20T05:03:52.011Z,100631.09
2022-11-20T05:06:21.811Z,100623.31
2022-11-20T05:08:49.480Z,100623.94
2022-11-20T05:11:20.071Z,100623.94
2022-11-20T05:13:47.103Z,100620.84
2022-11-20T05:16:24.944Z,100628.41
2022-11-20T05:18:53.741Z,100620.84
2022-11-20T05:21:21.411Z,100617.56
2022-11-20T05:23:49.194Z,100614.75
2022-11-20T05:26:20.312Z,100612.13
2022-11-20T05:28:47.888Z,100612.31
2022-11-20T05:31:25.066Z,100615.38
2022-11-20T05:33:54.241Z,100609.09
2022-11-20T05:36:21.405Z,100603.00
2022-11-20T05:38:50.852Z,100611.75
2022-11-20T05:41:20.798Z,100614.00
2022-11-20T05:43:49.543Z,100622.56
2022-11-20T05:46:24.732Z,100615.28
2022-11-20T05:48:55.401Z,100611.81
2022-11-20T05:51:23.790Z,100604.53
2022-11-20T05:53:50.787Z,100605.00
2022-11-20T05:56:20.949Z,100605.00
2022-11-20T05:58:49.008Z,100604.81
2022-11-20T06:01:24.232Z,100606.63
2022-11-20T06:03:52.211Z,100601.16
2022-11-20T06:06:20.585Z,100600.34
2022-11-20T06:08:48.268Z,100603.63
2022-11-20T06:11:16.456Z,100589.16
2022-11-20T06:13:43.682Z,100601.97
2022-11-20T06:16:12.687Z,100598.06
2022-11-20T06:18:40.260Z,100601.72
2022-11-20T06:21:08.224Z,100601.16
2022-11-20T06:23:36.493Z,100595.44
2022-11-20T06:26:10.695Z,100595.06
2022-11-20T06:28:38.313Z,100601.97
2022-11-20T06:31:07.333Z,100599.97
2022-11-20T06:33:35.247Z,100595.69
2022-11-20T06:36:08.950Z,100599.34
2022-11-20T06:38:37.905Z,100604.63
2022-11-20T06:41:06.715Z,100602.97
2022-11-20T06:43:33.677Z,100605.63
2022-11-20T06:46:01.206Z,100610.06
2022-11-20T06:48:30.053Z,100599.34
2022-11-20T06:50:58.014Z,100600.78
2022-11-20T06:53:25.659Z,100589.59
2022-11-20T06:55:53.760Z,100598.41
2022-11-20T06:58:20.774Z,100590.88
2022-11-20T07:00:47.695Z,100595.94
2022-11-20T07:03:15.117Z,100587.59
2022-11-20T07:05:42.242Z,100590.31
2022-11-20T07:08:10.269Z,100587.47
2022-11-20T07:10:37.253Z,100586.66
2022-11-20T07:13:04.268Z,100583.00
2022-11-20T07:15:31.715Z,100594.66
2022-11-20T07:18:02.021Z,100587.34
2022-11-20T07:20:29.530Z,100582.91
2022-11-20T07:22:57.786Z,100587.81
2022-11-20T07:25:26.663Z,100589.25
2022-11-20T07:27:54.286Z,100589.69
2022-11-20T07:30:21.711Z,100588.06
2022-11-20T07:32:52.560Z,100592.31
2022-11-20T07:35:20.210Z,100584.41
2022-11-20T07:37:48.112Z,100588.06
2022-11-20T07:40:16.739Z,100597.78
2022-11-20T07:42:56.003Z,100585.16
2022-11-20T07:45:25.339Z,100593.72
2022-11-20T07:47:52.940Z,100587.25
2022-11-20T07:50:20.634Z,100577.25
2022-11-20T07:52:48.395Z,100571.34
2022-11-20T07:55:16.260Z,100582.78
2022-11-20T07:57:43.212Z,100577.25
2022-11-20T08:00:12.727Z,100582.16
2022-11-20T08:02:41.471Z,100592.13
2022-11-20T08:05:10.224Z,100582.16
2022-11-20T08:07:43.376Z,100585.97
2022-11-20T08:10:13.870Z,100585.78
2022-11-20T08:13:10.778Z,100583.97
2022-11-20T08:15:40.131Z,100576.88
2022-11-20T08:21:03.809Z,100571.84
2022-11-20T08:23:31.237Z,100555.56
2022-11-20T08:25:58.421Z,100578.22
2022-11-20T08:28:25.412Z,100572.38
2022-11-20T08:30:52.359Z,100560.19
2022-11-20T08:33:19.694Z,100570.34
2022-11-20T08:35:46.576Z,100560.44
2022-11-20T08:38:13.854Z,100565.91
2022-11-20T08:40:40.746Z,100561.06
2022-11-20T08:43:07.878Z,100559.03
2022-11-20T08:45:35.623Z,100558.41
2022-11-20T08:48:04.026Z,100563.50
2022-11-20T08:50:33.106Z,100558.22
2022-11-20T08:53:05.768Z,100559.84
2022-11-20T08:55:33.168Z,100555.78
2022-11-20T08:58:05.473Z,100554.97
2022-11-20T09:00:33.576Z,100558.84
2022-11-20T09:03:02.018Z,100554.38
2022-11-20T09:05:30.441Z,100553.63
2022-11-20T09:08:01.150Z,100554.06
2022-11-20T09:10:28.910Z,100554.06
2022-11-20T09:12:56.697Z,100557.53
2022-11-20T09:15:25.559Z,100554.94
2022-11-20T09:17:58.125Z,100566.50
2022-11-20T09:20:27.250Z,100571.34
2022-11-20T09:22:54.738Z,100561.97
2022-11-20T09:25:22.209Z,100569.91
2022-11-20T09:27:49.245Z,100563.38
2022-11-20T09:30:17.066Z,100573.94
2022-11-20T09:32:44.288Z,100578.22
2022-11-20T09:35:12.046Z,100571.72
2022-11-20T09:37:39.442Z,100564.38
2022-11-20T09:40:07.838Z,100560.91
2022-11-20T09:43:17.846Z,100568.84
2022-11-20T09:46:10.852Z,100564.31
2022-11-20T09:49:10.623Z,100567.97
2022-11-20T09:51:43.634Z,100566.97
2022-11-20T09:54:19.709Z,100556.03
2022-11-20T09:56:58.016Z,100544.44
2022-11-20T09:59:33.409Z,100550.59
2022-11-20T10:02:02.094Z,100551.22
2022-11-20T10:04:35.544Z,100551.03
2022-11-20T10:07:36.206Z,100552.88
2022-11-20T10:10:03.423Z,100553.25
2022-11-20T10:12:51.085Z,100546.19
2022-11-20T10:15:50.980Z,100544.56
2022-11-20T10:18:48.545Z,100543.53
2022-11-20T10:21:49.270Z,100531.34
2022-11-20T10:24:31.347Z,100540.72
2022-11-20T10:27:07.657Z,100534.44
2022-11-20T10:29:38.342Z,100533.59
2022-11-20T10:32:31.958Z,100527.56
2022-11-20T10:35:17.428Z,100539.13
2022-11-20T10:37:49.191Z,100531.00
2022-11-20T10:40:32.276Z,100521.47
2022-11-20T10:43:16.294Z,100522.22
2022-11-20T10:46:03.055Z,100515.50
2022-11-20T10:48:33.242Z,100512.22
2022-11-20T10:51:26.773Z,100512.84
2022-11-20T10:54:17.819Z,100515.75
2022-11-20T10:56:52.763Z,100520.25
2022-11-20T10:59:43.015Z,100509.88
2022-11-20T11:02:43.062Z,100510.94
2022-11-20T11:05:54.645Z,100506.69
2022-11-20T11:08:22.689Z,100511.44
2022-11-20T11:10:56.069Z,100516.00
2022-11-20T11:13:27.381Z,100509.59
2022-11-20T11:15:55.385Z,100502.75
2022-11-20T11:18:31.932Z,100503.88
2022-11-20T11:21:03.079Z,100515.53
2022-11-20T11:23:37.669Z,100504.78
2022-11-20T11:26:26.955Z,100489.91
2022-11-20T11:28:56.366Z,100500.09
2022-11-20T11:31:28.996Z,100495.00
2022-11-20T11:34:28.695Z,100495.47
2022-11-20T11:37:01.758Z,100486.91
2022-11-20T11:39:31.448Z,100493.66
2022-11-20T11:41:59.697Z,100480.81
2022-11-20T11:44:51.300Z,100492.84
2022-11-20T11:47:44.128Z,100479.19
2022-11-20T11:50:11.352Z,100488.38
2022-11-20T11:52:55.038Z,100479.41
2022-11-20T11:55:49.654Z,100482.44
2022-11-20T11:58:41.247Z,100475.50
2022-11-20T12:01:34.498Z,100472.81
2022-11-20T12:04:34.988Z,100474.50
2022-11-20T12:07:44.180Z,100471.19
2022-11-20T12:10:02.887Z,100464.69
2022-11-20T12:12:38.194Z,100475.66
2022-11-20T12:15:11.592Z,100464.25
2022-11-20T12:17:38.840Z,100467.09
2022-11-20T12:20:17.172Z,100464.03
2022-11-20T12:22:58.167Z,100455.47
2022-11-20T12:25:49.012Z,100450.19
2022-11-20T12:29:04.887Z,100452.81
2022-11-20T12:31:43.735Z,100461.56
2022-11-20T12:34:28.906Z,100454.84
2022-11-20T12:37:26.536Z,100453.44
2022-11-20T12:40:00.113Z,100454.06
2022-11-20T12:43:09.230Z,100455.28
2022-11-20T12:45:51.538Z,100453.84
2022-11-20T12:48:46.428Z,100446.94
2022-11-20T12:52:07.043Z,100438.19
2022-11-20T12:55:37.934Z,100443.47
2022-11-20T12:58:37.832Z,100434.31
2022-11-20T13:01:41.611Z,100436.16
2022-11-20T13:04:39.196Z,100423.53
2022-11-20T13:07:15.360Z,100415.00
2022-11-20T13:09:48.418Z,100413.38
2022-11-20T13:12:28.765Z,100421.72
2022-11-20T13:15:35.550Z,100403.19
2022-11-20T13:18:05.767Z,100410.94
2022-11-20T13:20:36.231Z,100405.63
2022-11-20T13:23:03.193Z,100402.97
2022-11-20T13:25:39.696Z,100411.31
2022-11-20T13:28:12.580Z,100417.44
2022-11-20T13:30:52.842Z,100413.38
2022-11-20T13:33:36.501Z,100419.06
2022-11-20T13:36:27.512Z,100406.84
2022-11-20T13:38:56.972Z,100404.25
2022-11-20T13:41:38.939Z,100388.97
2022-11-20T13:44:26.309Z,100399.94
2022-11-20T13:46:53.565Z,100394.66
2022-11-20T13:49:45.209Z,100394.03
2022-11-20T13:52:40.051Z,100395.47
2022-11-20T13:55:37.298Z,100397.09
2022-11-20T13:58:46.142Z,100386.72
2022-11-20T14:01:26.045Z,100393.44
2022-11-20T14:04:09.610Z,100394.25
2022-11-20T14:06:45.280Z,100401.56
2022-11-20T14:09:32.174Z,100402.41
2022-11-20T14:11:59.872Z,100404.84
2022-11-20T14:14:29.731Z,100400.78
2022-11-20T14:17:24.511Z,100412.19
2022-11-20T14:19:53.929Z,100402.19
2022-11-20T14:22:25.544Z,100407.28
2022-11-20T14:25:13.055Z,100401.19
2022-11-20T14:27:54.875Z,100404.03
2022-11-20T14:30:47.804Z,100411.13
2022-11-20T14:33:16.398Z,100395.25
2022-11-20T14:35:52.985Z,100402.97
2022-11-20T14:38:25.644Z,100402.16
2022-11-20T14:40:52.952Z,100405.41
2022-11-20T14:43:27.181Z,100410.31
2022-11-20T14:46:04.347Z,100403.19
2022-11-20T14:48:39.429Z,100399.50
2022-11-20T14:51:06.489Z,100399.09
2022-11-20T14:53:33.379Z,100390.34
2022-11-20T14:56:03.987Z,100395.03
2022-11-20T14:58:34.375Z,100409.47
2022-11-20T15:01:05.865Z,100410.09
2022-11-20T15:03:41.910Z,100396.84
2022-11-20T15:06:13.174Z,100398.28
2022-11-20T15:08:51.709Z,100404.19
2022-11-20T15:11:37.386Z,100403.78
2022-11-20T15:14:07.711Z,100395.84
2022-11-20T15:16:34.740Z,100395.03
2022-11-20T15:19:03.808Z,100391.56
2022-11-20T15:21:31.906Z,100391.16
2022-11-20T15:24:00.196Z,100385.88
2022-11-20T15:26:29.065Z,100385.88
2022-11-20T15:28:56.126Z,100384.84
2022-11-20T15:31:24.836Z,100377.31
2022-11-20T15:33:52.134Z,100387.28
2022-11-20T15:36:19.038Z,100383.41
2022-11-20T15:38:46.050Z,100378.72
2022-11-20T15:41:13.186Z,100375.88
2022-11-20T15:43:40.045Z,100376.69
2022-11-20T15:46:15.430Z,100380.53
2022-11-20T15:48:52.679Z,100382.38
2022-11-20T15:51:49.515Z,100382.78
2022-11-20T15:54:21.263Z,100374.22
2022-11-20T15:56:55.609Z,100368.13
2022-11-20T15:59:22.671Z,100369.94
2022-11-20T16:01:50.089Z,100382.38
2022-11-20T16:04:17.900Z,100377.28
2022-11-20T16:06:44.839Z,100370.78
2022-11-20T16:09:11.940Z,100376.69
2022-11-20T16:11:39.148Z,100366.09
2022-11-20T16:14:26.095Z,100366.50
2022-11-20T16:16:53.517Z,100358.16
2022-11-20T16:19:20.856Z,100357.34
2022-11-20T16:21:48.059Z,100360.38
2022-11-20T16:24:16.907Z,100357.91
2022-11-20T16:26:44.265Z,100355.47
2022-11-20T16:29:11.328Z,100365.81
2022-11-20T16:31:38.891Z,100373.06
2022-11-20T16:34:12.368Z,100363.09
2022-11-20T16:36:45.820Z,100365.72
2022-11-20T16:39:15.020Z,100368.53
2022-11-20T16:41:43.781Z,100363.22
2022-11-20T16:44:11.806Z,100376.00
2022-11-20T16:46:40.645Z,100372.53
2022-11-20T16:49:13.662Z,100365.81
2022-11-20T16:51:40.996Z,100371.06
2022-11-20T16:54:10.214Z,100372.03
2022-11-20T16:56:37.838Z,100379.34
2022-11-20T16:59:05.248Z,100386.81
2022-11-20T17:01:32.766Z,100385.41
2022-11-20T17:04:06.174Z,100384.78
2022-11-20T17:06:36.411Z,100386.78
2022-11-20T17:09:04.469Z,100382.09
2022-11-20T17:11:33.657Z,100382.91
2022-11-20T17:14:01.113Z,100376.19
2022-11-20T17:16:28.335Z,100375.38
2022-11-20T17:19:02.872Z,100379.66
2022-11-20T17:21:39.305Z,100372.31
2022-11-20T17:24:10.145Z,100382.66
2022-11-20T17:26:39.832Z,100377.41
2022-11-20T17:29:19.411Z,100385.94
2022-11-20T17:31:46.478Z,100372.31
2022-11-20T17:34:15.350Z,100376.19
2022-11-20T17:36:46.901Z,100370.47
2022-11-20T17:39:15.959Z,100385.94
2022-11-20T17:41:43.265Z,100375.38
2022-11-20T17:44:12.124Z,100386.38
2022-11-20T17:46:39.187Z,100377.63
2022-11-20T17:49:06.809Z,100378.25
2022-11-20T17:51:35.239Z,100380.31
2022-11-20T17:54:07.200Z,100371.19
2022-11-20T17:56:54.242Z,100370.38
2022-11-20T17:59:21.443Z,100360.81
2022-11-20T18:01:48.494Z,100367.31
2022-11-20T18:04:16.682Z,100360.00
2022-11-20T18:06:44.017Z,100357.78
2022-11-20T18:09:11.474Z,100361.28
2022-11-20T18:11:40.820Z,100347.06
2022-11-20T18:14:31.818Z,100344.22
2022-11-20T18:17:02.112Z,100343.22
2022-11-20T18:19:41.153Z,100335.72
2022-11-20T18:22:13.787Z,100327.59
2022-11-20T18:24:42.063Z,100334.31
2022-11-20T18:27:17.601Z,100335.94
2022-11-20T18:29:46.821Z,100331.66
2022-11-20T18:32:13.858Z,100332.47
2022-11-20T18:34:41.071Z,100329.41
2022-11-20T18:37:09.736Z,100331.03
2022-11-20T18:39:37.051Z,100324.31
2022-11-20T18:42:22.567Z,100332.22
2022-11-20T18:44:53.531Z,100336.88
2022-11-20T18:47:28.570Z,100337.69
2022-11-20T18:50:00.994Z,100327.13
2022-11-20T18:52:31.082Z,100334.88
2022-11-20T18:54:58.095Z,100336.50
2022-11-20T18:57:27.368Z,100331.84
2022-11-20T18:59:56.099Z,100329.19
2022-11-20T19:02:23.495Z,100328.56
2022-11-20T19:04:50.528Z,100325.94
2022-11-20T19:07:18.195Z,100329.78
2022-11-20T19:09:50.081Z,100323.06
2022-11-20T19:12:17.968Z,100322.63
2022-11-20T19:14:45.590Z,100313.47
2022-11-20T19:17:12.821Z,100313.66
2022-11-20T19:19:40.061Z,100312.84
2022-11-20T19:22:08.095Z,100322.34
2022-11-20T19:24:35.049Z,100316.00
2022-11-20T19:27:02.421Z,100328.13
2022-11-20T19:29:29.803Z,100334.00
2022-11-20T19:31:58.935Z,100335.19
2022-11-20T19:34:26.143Z,100338.59
2022-11-20T19:36:54.097Z,100336.75
2022-11-20T19:39:21.069Z,100334.88
2022-11-20T19:41:48.417Z,100333.44
2022-11-20T19:44:17.376Z,100332.19
2022-11-20T19:46:44.830Z,100336.66
2022-11-20T19:49:14.036Z,100329.56
2022-11-20T19:51:47.301Z,100330.75
2022-11-20T19:54:15.680Z,100336.03
2022-11-20T19:56:42.652Z,100332.38
2022-11-20T19:59:09.573Z,100333.00
2022-11-20T20:01:36.706Z,100333.00
2022-11-20T20:04:05.457Z,100334.63
2022-11-20T20:06:35.778Z,100326.91
2022-11-20T20:09:10.194Z,100318.63
2022-11-20T20:11:37.668Z,100319.03
2022-11-20T20:14:08.942Z,100312.13
2022-11-20T20:16:37.078Z,100313.16
2022-11-20T20:19:05.530Z,100320.06
2022-11-20T20:21:35.306Z,100320.69
2022-11-20T20:24:03.401Z,100304.03
2022-11-20T20:26:31.756Z,100300.38
2022-11-20T20:28:59.495Z,100312.13
2022-11-20T20:31:29.791Z,100314.59
2022-11-20T20:33:57.426Z,100304.03
2022-11-20T20:36:25.518Z,100295.06
2022-11-20T20:38:59.521Z,100303.78
2022-11-20T20:41:26.737Z,100288.16
2022-11-20T20:44:12.748Z,100289.56
2022-11-20T20:46:40.927Z,100297.03
2022-11-20T20:49:08.488Z,100286.44
2022-11-20T20:51:35.968Z,100292.09
2022-11-20T20:54:03.180Z,100287.97
2022-11-20T20:56:30.140Z,100283.53
2022-11-20T20:58:57.096Z,100273.94
2022-11-20T21:01:28.316Z,100277.97
2022-11-20T21:03:56.852Z,100266.16
2022-11-20T21:06:24.779Z,100274.88
2022-11-20T21:08:52.013Z,100277.25
2022-11-20T21:11:20.778Z,100271.91
2022-11-20T21:13:48.451Z,100274.31
2022-11-20T21:16:17.801Z,100277.72
2022-11-20T21:18:45.117Z,100268.94
2022-11-20T21:21:32.929Z,100269.31
2022-11-20T21:24:00.708Z,100257.47
2022-11-20T21:26:27.746Z,100261.28
2022-11-20T21:28:56.679Z,100253.56
2022-11-20T21:31:26.639Z,100249.50
2022-11-20T21:33:55.925Z,100234.63
2022-11-20T21:36:28.753Z,100237.06
2022-11-20T21:38:58.674Z,100239.28
2022-11-20T21:41:28.438Z,100232.50
2022-11-20T21:46:46.109Z,100231.88
2022-11-20T21:49:14.467Z,100225.97
2022-11-20T21:51:41.788Z,100229.63
2022-11-20T21:54:10.793Z,100230.81
2022-11-20T21:56:37.714Z,100226.72
2022-11-20T21:59:04.717Z,100224.66
2022-11-20T22:01:32.157Z,100215.13
2022-11-20T22:04:02.530Z,100220.78
2022-11-20T22:06:34.378Z,100216.84
2022-11-20T22:09:02.857Z,100218.03
2022-11-20T22:11:30.216Z,100213.69
2022-11-20T22:14:16.340Z,100210.63
2022-11-20T22:16:43.515Z,100202.84
2022-11-20T22:19:10.481Z,100200.41
2022-11-20T22:21:40.399Z,100201.59
2022-11-20T22:24:17.167Z,100208.03
2022-11-20T22:26:44.651Z,100196.63
2022-11-20T22:29:23.486Z,100194.81
2022-11-20T22:31:53.850Z,100202.25
2022-11-20T22:34:21.140Z,100198.19
2022-11-20T22:36:48.430Z,100188.22
2022-11-20T22:39:15.630Z,100187.13
2022-11-20T22:41:42.556Z,100186.94
2022-11-20T22:44:13.278Z,100187.13
2022-11-20T22:46:40.586Z,100184.50
2022-11-20T22:49:10.901Z,100174.34
2022-11-20T22:51:40.846Z,100177.16
2022-11-20T22:54:11.001Z,100174.53
2022-11-20T22:56:37.910Z,100176.34
2022-11-20T22:59:05.211Z,100169.28
2022-11-20T23:01:36.766Z,100165.66
2022-11-20T23:04:08.334Z,100160.03
2022-11-20T23:06:35.527Z,100156.03
2022-11-20T23:09:07.578Z,100157.91
2022-11-20T23:11:36.038Z,100154.91
2022-11-20T23:14:15.610Z,100155.97
2022-11-20T23:16:43.058Z,100154.16
2022-11-20T23:19:14.070Z,100158.03
2022-11-20T23:21:43.062Z,100157.69
2022-11-20T23:24:10.403Z,100151.22
2022-11-20T23:26:40.137Z,100151.47
2022-11-20T23:29:07.930Z,100143.41
2022-11-20T23:31:35.869Z,100138.38
2022-11-20T23:34:03.174Z,100139.63
2022-11-20T23:36:30.671Z,100143.16
2022-11-20T23:38:57.538Z,100139.78
2022-11-20T23:41:24.663Z,100138.22
2022-11-20T23:43:53.458Z,100136.84
2022-11-20T23:46:20.417Z,100131.81
2022-11-20T23:48:47.453Z,100130.03
2022-11-20T23:51:15.015Z,100124.41
2022-11-20T23:53:42.245Z,100127.69
2022-11-20T23:56:10.763Z,100114.34
2022-11-20T23:58:39.017Z,100118.84
